Overview Statistics Trail Chart Weather Telemetry Raw packets
 

This is the latest recevied weather packets stored in our database for station/object F5TND-14. If no packets are shown the sender has not sent any weather packets the latest 10 day(s).

<< 35 36 37 38 39 40 41 >>
Time Temp. Humidity Pressure Rain* Wind** Luminosity Snow
1788029240 21.67° C 77% 1017.6 hPa - - - -
1788028640 22.22° C 71% 1017.5 hPa - - - -
1788028040 22.22° C 67% 1017.4 hPa - - - -
1788027440 22.78° C 67% 1017.5 hPa - - - -
1788026839 22.78° C 67% 1017.4 hPa - - - -
1788026239 22.78° C 68% 1017.4 hPa - - - -
1788025639 22.78° C 68% 1017.4 hPa - - - -
1788025039 22.78° C 68% 1017.6 hPa - - - -
1788024439 22.22° C 70% 1017.5 hPa - - - -
1788023839 22.22° C 71% 1017.4 hPa - - - -
1788023238 21.67° C 76% 1017.4 hPa - - - -
1788022638 21.67° C 76% 1017.4 hPa - - - -
1788022038 21.11° C 78% 1017.5 hPa - - - -
1788021437 21.67° C 76% 1017.6 hPa - - - -
1788020837 21.11° C 77% 1017.7 hPa - - - -
1788020236 22.78° C 68% 1017.6 hPa - - - -
1788019636 22.78° C 67% 1017.7 hPa - - - -
1788019036 22.78° C 67% 1017.5 hPa - - - -
1788018436 22.78° C 68% 1017.6 hPa - - - -
1788017836 22.78° C 68% 1017.6 hPa - - - -
1788017236 22.78° C 68% 1017.8 hPa - - - -
1788016635 22.78° C 67% 1017.8 hPa - - - -
1788016035 22.78° C 67% 1017.8 hPa - - - -
1788015435 22.78° C 67% 1017.7 hPa - - - -
1788014835 22.78° C 67% 1017.7 hPa - - - -

* Rain since midnight (hover to see other rain measurements)
** Current wind speed in m/s (hover to see current wind gust speed)